createdAt,value
2018-08-20T00:00:48.933Z,0.00
2018-08-20T00:01:48.826Z,0.00
2018-08-20T00:02:48.738Z,0.00
2018-08-20T00:03:48.646Z,0.00
2018-08-20T00:04:48.574Z,0.00
2018-08-20T00:05:48.485Z,0.00
2018-08-20T00:06:48.384Z,0.00
2018-08-20T00:07:48.294Z,0.00
2018-08-20T00:08:48.205Z,0.00
2018-08-20T00:09:48.116Z,0.00
2018-08-20T00:10:48.043Z,0.00
2018-08-20T00:11:47.935Z,0.00
2018-08-20T00:12:47.847Z,0.00
2018-08-20T00:13:47.761Z,0.00
2018-08-20T00:14:47.670Z,0.00
2018-08-20T00:15:47.599Z,0.00
2018-08-20T00:16:47.488Z,0.00
2018-08-20T00:17:47.400Z,0.00
2018-08-20T00:18:47.312Z,0.00
2018-08-20T00:19:47.224Z,0.00
2018-08-20T00:20:47.153Z,0.00
2018-08-20T00:21:47.045Z,0.00
2018-08-20T00:22:46.956Z,0.00
2018-08-20T00:23:46.867Z,0.00
2018-08-20T00:24:46.777Z,0.00
2018-08-20T00:25:46.722Z,0.00
2018-08-20T00:26:46.599Z,0.00
2018-08-20T00:27:46.508Z,0.00
2018-08-20T00:28:46.418Z,0.00
2018-08-20T00:29:46.332Z,0.00
2018-08-20T00:30:46.261Z,0.00
2018-08-20T00:31:46.152Z,0.00
2018-08-20T00:32:46.067Z,0.00
2018-08-20T00:33:45.976Z,0.00
2018-08-20T00:34:45.883Z,0.00
2018-08-20T00:35:45.809Z,0.00
2018-08-20T00:36:45.703Z,0.00
2018-08-20T00:37:45.620Z,0.00
2018-08-20T00:38:45.528Z,0.00
2018-08-20T00:39:45.439Z,0.00
2018-08-20T00:40:45.361Z,0.00
2018-08-20T00:41:45.257Z,0.00
2018-08-20T00:42:45.168Z,0.00
2018-08-20T00:43:45.081Z,0.00
2018-08-20T00:44:44.989Z,0.00
2018-08-20T00:45:44.917Z,0.00
2018-08-20T00:46:44.824Z,0.00
2018-08-20T00:47:44.720Z,0.00
2018-08-20T00:48:44.631Z,0.00
2018-08-20T00:49:44.547Z,0.00
2018-08-20T00:50:44.464Z,0.00
2018-08-20T00:51:44.362Z,0.00
2018-08-20T00:52:44.273Z,0.00
2018-08-20T00:53:44.186Z,0.00
2018-08-20T00:54:44.118Z,0.00
2018-08-20T00:55:44.005Z,0.00
2018-08-20T00:56:43.932Z,0.00
2018-08-20T00:57:43.824Z,0.00
2018-08-20T00:58:43.736Z,0.00
2018-08-20T00:59:43.649Z,0.00
2018-08-20T01:00:43.572Z,0.00
2018-08-20T01:01:43.469Z,0.00
2018-08-20T01:02:43.375Z,0.00
2018-08-20T01:03:43.290Z,0.00
2018-08-20T01:04:43.199Z,0.00
2018-08-20T01:05:43.114Z,0.00
2018-08-20T01:06:43.033Z,0.00
2018-08-20T01:07:42.931Z,0.00
2018-08-20T01:08:42.837Z,0.00
2018-08-20T01:09:42.850Z,0.00
2018-08-20T01:10:42.659Z,0.00
2018-08-20T01:11:42.589Z,0.00
2018-08-20T01:12:42.481Z,0.00
2018-08-20T01:13:42.393Z,0.00
2018-08-20T01:14:42.301Z,0.00
2018-08-20T01:15:42.212Z,0.00
2018-08-20T01:16:42.249Z,0.00
2018-08-20T01:17:42.033Z,0.00
2018-08-20T01:18:41.943Z,0.00
2018-08-20T01:19:41.853Z,0.00
2018-08-20T01:20:41.764Z,0.00
2018-08-20T01:21:41.691Z,0.00
2018-08-20T01:22:41.581Z,0.00
2018-08-20T01:23:41.598Z,0.00
2018-08-20T01:24:41.403Z,0.00
2018-08-20T01:25:41.314Z,0.00
2018-08-20T01:26:41.238Z,0.00
2018-08-20T01:27:41.136Z,0.00
2018-08-20T01:28:41.043Z,0.00
2018-08-20T01:29:40.955Z,0.00
2018-08-20T01:30:40.962Z,0.00
2018-08-20T01:31:40.789Z,0.00
2018-08-20T01:32:40.684Z,0.00
2018-08-20T01:33:40.594Z,0.00
2018-08-20T01:34:40.504Z,0.00
2018-08-20T01:35:40.414Z,0.00
2018-08-20T01:36:40.346Z,0.00
2018-08-20T01:37:40.338Z,0.00
2018-08-20T01:38:40.144Z,0.00
2018-08-20T01:39:40.054Z,0.00
2018-08-20T01:40:39.966Z,0.00
2018-08-20T01:41:39.891Z,0.00
2018-08-20T01:42:39.783Z,0.00
2018-08-20T01:43:39.696Z,0.00
2018-08-20T01:44:39.708Z,0.00
2018-08-20T01:45:39.520Z,0.00
2018-08-20T01:46:39.441Z,0.00
2018-08-20T01:47:39.338Z,0.00
2018-08-20T01:48:39.244Z,0.00
2018-08-20T01:49:39.155Z,0.00
2018-08-20T01:50:39.068Z,0.00
2018-08-20T01:51:39.093Z,0.00
2018-08-20T01:52:38.884Z,0.00
2018-08-20T01:53:38.795Z,0.00
2018-08-20T01:54:38.713Z,0.00
2018-08-20T01:55:38.615Z,0.00
2018-08-20T01:56:38.539Z,0.00
2018-08-20T01:57:38.433Z,0.00
2018-08-20T01:58:38.444Z,0.00
2018-08-20T01:59:38.253Z,0.00
2018-08-20T02:00:38.166Z,0.00
2018-08-20T02:01:38.092Z,0.00
2018-08-20T02:02:37.985Z,0.00
2018-08-20T02:03:37.893Z,0.00
2018-08-20T02:04:37.805Z,0.00
2018-08-20T02:05:37.813Z,0.00
2018-08-20T02:06:37.642Z,0.00
2018-08-20T02:07:37.538Z,0.00
2018-08-20T02:08:37.445Z,0.00
2018-08-20T02:09:37.354Z,0.00
2018-08-20T02:10:37.264Z,0.00
2018-08-20T02:11:37.191Z,0.00
2018-08-20T02:12:37.198Z,0.00
2018-08-20T02:13:37.000Z,0.00
2018-08-20T02:14:36.906Z,0.00
2018-08-20T02:15:36.814Z,0.00
2018-08-20T02:16:36.742Z,0.00
2018-08-20T02:17:36.634Z,0.00
2018-08-20T02:18:36.542Z,0.00
2018-08-20T02:19:36.453Z,0.00
2018-08-20T02:20:36.365Z,0.00
2018-08-20T02:21:36.292Z,0.00
2018-08-20T02:22:36.189Z,0.00
2018-08-20T02:23:36.092Z,0.00
2018-08-20T02:24:36.003Z,0.00
2018-08-20T02:25:35.913Z,0.00
2018-08-20T02:26:35.938Z,0.00
2018-08-20T02:27:35.732Z,0.00
2018-08-20T02:28:35.643Z,0.00
2018-08-20T02:29:35.555Z,0.00
2018-08-20T02:30:35.473Z,0.00
2018-08-20T02:31:35.391Z,0.00
2018-08-20T02:32:35.422Z,0.00
2018-08-20T02:33:35.195Z,0.00
2018-08-20T02:34:35.102Z,0.00
2018-08-20T02:35:35.012Z,0.00
2018-08-20T02:36:34.940Z,0.00
2018-08-20T02:37:34.836Z,0.00
2018-08-20T02:38:34.742Z,0.00
2018-08-20T02:39:34.653Z,0.00
2018-08-20T02:40:34.561Z,0.00
2018-08-20T02:41:34.488Z,0.00
2018-08-20T02:42:34.385Z,0.00
2018-08-20T02:43:34.293Z,0.00
2018-08-20T02:44:34.199Z,0.00
2018-08-20T02:45:34.113Z,0.00
2018-08-20T02:46:34.035Z,0.00
2018-08-20T02:47:33.933Z,0.00
2018-08-20T02:48:33.842Z,0.00
2018-08-20T02:49:33.751Z,0.00
2018-08-20T02:50:33.660Z,0.00
2018-08-20T02:51:33.576Z,0.00
2018-08-20T02:52:33.502Z,0.00
2018-08-20T02:53:33.391Z,0.00
2018-08-20T02:54:33.304Z,0.00
2018-08-20T02:55:33.210Z,0.00
2018-08-20T02:56:33.126Z,0.00
2018-08-20T02:57:33.048Z,0.00
2018-08-20T02:58:32.940Z,0.00
2018-08-20T02:59:32.851Z,0.00
2018-08-20T03:00:32.759Z,0.00
2018-08-20T03:01:32.676Z,0.00
2018-08-20T03:02:32.595Z,0.00
2018-08-20T03:03:32.513Z,0.00
2018-08-20T03:04:32.401Z,0.00
2018-08-20T03:05:32.312Z,0.00
2018-08-20T03:06:32.221Z,0.00
2018-08-20T03:07:32.144Z,0.00
2018-08-20T03:08:32.038Z,0.00
2018-08-20T03:09:31.948Z,0.00
2018-08-20T03:10:31.857Z,0.00
2018-08-20T03:11:31.774Z,0.00
2018-08-20T03:12:31.696Z,0.00
2018-08-20T03:13:31.588Z,0.00
2018-08-20T03:14:31.496Z,0.00
2018-08-20T03:15:31.718Z,0.00
2018-08-20T03:16:31.371Z,0.00
2018-08-20T03:17:31.354Z,0.00
2018-08-20T03:18:31.137Z,0.00
2018-08-20T03:19:31.045Z,0.00
2018-08-20T03:20:30.957Z,0.00
2018-08-20T03:21:30.864Z,0.00
2018-08-20T03:22:30.788Z,0.00
2018-08-20T03:23:30.685Z,0.00
2018-08-20T03:24:30.594Z,0.00
2018-08-20T03:25:30.506Z,0.00
2018-08-20T03:26:30.417Z,0.00
2018-08-20T03:27:30.339Z,0.00
2018-08-20T03:28:30.234Z,0.00
2018-08-20T03:29:30.143Z,0.00
2018-08-20T03:30:30.056Z,0.00
2018-08-20T03:31:29.961Z,0.00
2018-08-20T03:32:29.889Z,4.00
2018-08-20T03:33:29.792Z,4.00
2018-08-20T03:34:29.705Z,0.00
2018-08-20T03:35:29.601Z,4.00
2018-08-20T03:36:29.510Z,4.00
2018-08-20T03:37:29.434Z,4.00
2018-08-20T03:38:29.326Z,4.00
2018-08-20T03:39:29.244Z,4.00
2018-08-20T03:40:29.148Z,8.00
2018-08-20T03:41:29.057Z,12.00
2018-08-20T03:42:28.983Z,8.00
2018-08-20T03:43:28.875Z,12.00
2018-08-20T03:44:28.788Z,16.00
2018-08-20T03:45:28.696Z,20.00
2018-08-20T03:46:28.608Z,24.00
2018-08-20T03:47:28.529Z,28.00
2018-08-20T03:48:28.423Z,28.00
2018-08-20T03:49:28.333Z,36.00
2018-08-20T03:50:28.248Z,44.00
2018-08-20T03:51:28.153Z,48.00
2018-08-20T03:52:28.079Z,56.00
2018-08-20T03:53:27.972Z,64.00
2018-08-20T03:54:27.883Z,72.00
2018-08-20T03:55:27.801Z,80.00
2018-08-20T03:56:27.712Z,92.00
2018-08-20T03:57:27.626Z,104.00
2018-08-20T03:58:27.522Z,116.00
2018-08-20T03:59:27.428Z,132.00
2018-08-20T04:00:27.339Z,144.00
2018-08-20T04:01:27.251Z,160.00
2018-08-20T04:02:27.174Z,180.00
2018-08-20T04:03:27.065Z,200.00
2018-08-20T04:04:26.978Z,220.00
2018-08-20T04:05:26.886Z,240.00
2018-08-20T04:06:26.796Z,260.00
2018-08-20T04:07:26.723Z,284.00
2018-08-20T04:08:26.615Z,312.00
2018-08-20T04:09:26.525Z,340.00
2018-08-20T04:10:26.432Z,364.00
2018-08-20T04:11:26.446Z,396.00
2018-08-20T04:12:26.271Z,432.00
2018-08-20T04:13:26.166Z,464.00
2018-08-20T04:14:26.074Z,496.00
2018-08-20T04:15:25.981Z,536.00
2018-08-20T04:16:25.889Z,572.00
2018-08-20T04:17:25.815Z,612.00
2018-08-20T04:18:25.812Z,656.00
2018-08-20T04:19:25.617Z,696.00
2018-08-20T04:20:25.527Z,740.00
2018-08-20T04:21:25.437Z,780.00
2018-08-20T04:22:25.362Z,824.00
2018-08-20T04:23:25.257Z,868.00
2018-08-20T04:24:25.166Z,916.00
2018-08-20T04:25:25.172Z,960.00
2018-08-20T04:26:24.984Z,1012.00
2018-08-20T04:27:24.910Z,1060.00
2018-08-20T04:28:24.801Z,1112.00
2018-08-20T04:29:24.711Z,1164.00
2018-08-20T04:30:24.622Z,1216.00
2018-08-20T04:31:24.529Z,1264.00
2018-08-20T04:32:24.556Z,1316.00
2018-08-20T04:33:24.356Z,1368.00
2018-08-20T04:34:24.257Z,1416.00
2018-08-20T04:35:24.168Z,1464.00
2018-08-20T04:36:24.082Z,1520.00
2018-08-20T04:37:23.990Z,1576.00
2018-08-20T04:38:23.911Z,1632.00
2018-08-20T04:39:23.904Z,1684.00
2018-08-20T04:40:23.716Z,1736.00
2018-08-20T04:41:23.624Z,1788.00
2018-08-20T04:42:23.535Z,1840.00
2018-08-20T04:43:23.458Z,1888.00
2018-08-20T04:44:23.356Z,1944.00
2018-08-20T04:45:23.269Z,1992.00
2018-08-20T04:46:23.268Z,2040.00
2018-08-20T04:47:23.082Z,2084.00
2018-08-20T04:48:23.007Z,2132.00
2018-08-20T04:49:22.900Z,2176.00
2018-08-20T04:50:23.036Z,2220.00
2018-08-20T04:51:22.847Z,2272.00
2018-08-20T04:52:22.629Z,2316.00
2018-08-20T04:53:22.654Z,2360.00
2018-08-20T04:54:22.448Z,2412.00
2018-08-20T04:55:22.355Z,2456.00
2018-08-20T04:56:22.265Z,2500.00
2018-08-20T04:57:22.178Z,2552.00
2018-08-20T04:58:22.100Z,2604.00
2018-08-20T04:59:21.993Z,2660.00
2018-08-20T05:00:22.000Z,2728.00
2018-08-20T05:01:21.813Z,2788.00
2018-08-20T05:02:21.723Z,2860.00
2018-08-20T05:03:21.652Z,2948.00
2018-08-20T05:04:21.546Z,3024.00
2018-08-20T05:05:21.450Z,3092.00
2018-08-20T05:06:21.359Z,3152.00
2018-08-20T05:07:21.374Z,3148.00
2018-08-20T05:08:21.199Z,3172.00
2018-08-20T05:09:21.093Z,3240.00
2018-08-20T05:10:20.997Z,3264.00
2018-08-20T05:11:20.912Z,3316.00
2018-08-20T05:12:20.818Z,3748.00
2018-08-20T05:13:20.743Z,3876.00
2018-08-20T05:14:20.734Z,3508.00
2018-08-20T05:15:20.547Z,3716.00
2018-08-20T05:16:20.455Z,3772.00
2018-08-20T05:17:20.366Z,3708.00
2018-08-20T05:18:20.292Z,3756.00
2018-08-20T05:19:20.203Z,3820.00
2018-08-20T05:20:20.095Z,3884.00
2018-08-20T05:21:20.007Z,3940.00
2018-08-20T05:22:19.916Z,3940.00
2018-08-20T05:23:19.849Z,3972.00
2018-08-20T05:24:19.735Z,4012.00
2018-08-20T05:25:19.649Z,4064.00
2018-08-20T05:26:19.557Z,4100.00
2018-08-20T05:27:19.466Z,4136.00
2018-08-20T05:28:19.394Z,4172.00
2018-08-20T05:29:19.296Z,4236.00
2018-08-20T05:30:19.197Z,4300.00
2018-08-20T05:31:19.108Z,4320.00
2018-08-20T05:32:19.017Z,4352.00
2018-08-20T05:33:18.944Z,4400.00
2018-08-20T05:34:18.837Z,4456.00
2018-08-20T05:35:18.748Z,4512.00
2018-08-20T05:36:18.659Z,4780.00
2018-08-20T05:37:18.570Z,4804.00
2018-08-20T05:38:18.496Z,4660.00
2018-08-20T05:39:18.396Z,4684.00
2018-08-20T05:40:18.302Z,4704.00
2018-08-20T05:41:18.213Z,4740.00
2018-08-20T05:42:18.122Z,4780.00
2018-08-20T05:43:18.051Z,4804.00
2018-08-20T05:44:17.944Z,4840.00
2018-08-20T05:45:17.856Z,4900.00
2018-08-20T05:46:17.766Z,4984.00
2018-08-20T05:47:17.678Z,5288.00
2018-08-20T05:48:17.608Z,5180.00
2018-08-20T05:49:17.498Z,5136.00
2018-08-20T05:50:17.410Z,5084.00
2018-08-20T05:51:17.319Z,5236.00
2018-08-20T05:52:17.232Z,5252.00
2018-08-20T05:53:17.159Z,5180.00
2018-08-20T05:54:17.053Z,5080.00
2018-08-20T05:55:16.965Z,5112.00
2018-08-20T05:56:16.878Z,5160.00
2018-08-20T05:57:16.788Z,5228.00
2018-08-20T05:58:16.717Z,5356.00
2018-08-20T05:59:16.674Z,5592.00
2018-08-20T06:00:16.523Z,5716.00
2018-08-20T06:01:16.434Z,5832.00
2018-08-20T06:02:16.364Z,5652.00
2018-08-20T06:03:16.274Z,5880.00
2018-08-20T06:04:16.168Z,6172.00
2018-08-20T06:05:16.082Z,6164.00
2018-08-20T06:06:15.992Z,6220.00
2018-08-20T06:07:15.903Z,7992.00
2018-08-20T06:08:15.835Z,8836.00
2018-08-20T06:09:15.728Z,6364.00
2018-08-20T06:10:15.640Z,6028.00
2018-08-20T06:11:15.552Z,5856.00
2018-08-20T06:12:15.465Z,5716.00
2018-08-20T06:13:15.393Z,5964.00
2018-08-20T06:14:15.292Z,5788.00
2018-08-20T06:15:15.219Z,5844.00
2018-08-20T06:16:15.110Z,5912.00
2018-08-20T06:17:15.028Z,6024.00
2018-08-20T06:18:14.949Z,6256.00
2018-08-20T06:19:14.848Z,6424.00
2018-08-20T06:20:14.761Z,6416.00
2018-08-20T06:21:14.672Z,6372.00
2018-08-20T06:22:14.586Z,6376.00
2018-08-20T06:23:14.498Z,6652.00
2018-08-20T06:24:14.430Z,6824.00
2018-08-20T06:25:14.324Z,6828.00
2018-08-20T06:26:14.235Z,6576.00
2018-08-20T06:27:14.147Z,6640.00
2018-08-20T06:28:14.077Z,6696.00
2018-08-20T06:29:13.974Z,6748.00
2018-08-20T06:30:13.883Z,6808.00
2018-08-20T06:31:13.798Z,6868.00
2018-08-20T06:32:13.709Z,6936.00
2018-08-20T06:33:13.624Z,7104.00
2018-08-20T06:34:13.563Z,7380.00
2018-08-20T06:35:13.446Z,7232.00
2018-08-20T06:36:13.359Z,7468.00
2018-08-20T06:37:13.380Z,7492.00
2018-08-20T06:38:13.186Z,7504.00
2018-08-20T06:39:13.119Z,7688.00
2018-08-20T06:40:13.014Z,8464.00
2018-08-20T06:41:12.922Z,9564.00
2018-08-20T06:42:12.835Z,11212.00
2018-08-20T06:43:12.749Z,16024.00
2018-08-20T06:44:12.796Z,17440.00
2018-08-20T06:45:12.573Z,26560.00
2018-08-20T06:46:12.488Z,24800.00
2018-08-20T06:47:12.397Z,26432.00
2018-08-20T06:48:12.311Z,26432.00
2018-08-20T06:49:12.241Z,25888.00
2018-08-20T06:50:12.140Z,25568.00
2018-08-20T06:51:12.053Z,25440.00
2018-08-20T06:52:11.966Z,25376.00
2018-08-20T06:53:11.880Z,25376.00
2018-08-20T06:54:11.807Z,25504.00
2018-08-20T06:55:11.708Z,25984.00
2018-08-20T06:56:11.618Z,26144.00
2018-08-20T06:57:11.532Z,26016.00
2018-08-20T06:58:11.550Z,25632.00
2018-08-20T06:59:11.377Z,25408.00
2018-08-20T07:00:11.276Z,25120.00
2018-08-20T07:01:11.194Z,25024.00
2018-08-20T07:02:11.105Z,25376.00
2018-08-20T07:03:11.019Z,25920.00
2018-08-20T07:04:10.950Z,26240.00
2018-08-20T07:05:10.954Z,26560.00
2018-08-20T07:06:10.763Z,26880.00
2018-08-20T07:07:10.682Z,26848.00
2018-08-20T07:08:10.595Z,26592.00
2018-08-20T07:09:10.528Z,26336.00
2018-08-20T07:10:10.425Z,26496.00
2018-08-20T07:11:10.341Z,27200.00
2018-08-20T07:12:10.357Z,28352.00
2018-08-20T07:13:10.175Z,29248.00
2018-08-20T07:14:10.109Z,29472.00
2018-08-20T07:15:10.007Z,29600.00
2018-08-20T07:16:09.923Z,29888.00
2018-08-20T07:17:09.841Z,30336.00
2018-08-20T07:18:09.761Z,30528.00
2018-08-20T07:19:09.793Z,29824.00
2018-08-20T07:20:09.591Z,29344.00
2018-08-20T07:21:09.511Z,29216.00
2018-08-20T07:22:09.426Z,30112.00
2018-08-20T07:23:09.344Z,30112.00
2018-08-20T07:24:09.277Z,30336.00
2018-08-20T07:25:09.180Z,30624.00
2018-08-20T07:26:09.198Z,31232.00
2018-08-20T07:27:09.019Z,31488.00
2018-08-20T07:28:08.932Z,32000.00
2018-08-20T07:29:08.867Z,32480.00
2018-08-20T07:30:08.768Z,32640.00
2018-08-20T07:31:08.684Z,32192.00
2018-08-20T07:32:08.606Z,31328.00
2018-08-20T07:33:08.630Z,31136.00
2018-08-20T07:34:08.456Z,31360.00
2018-08-20T07:35:08.363Z,25440.00
2018-08-20T07:36:08.281Z,32576.00
2018-08-20T07:37:08.197Z,33440.00
2018-08-20T07:38:08.115Z,35520.00
2018-08-20T07:39:08.074Z,37728.00
2018-08-20T07:40:08.055Z,40480.00
2018-08-20T07:41:07.870Z,43136.00
2018-08-20T07:42:07.789Z,43776.00
2018-08-20T07:43:07.709Z,41664.00
2018-08-20T07:44:07.644Z,38656.00
2018-08-20T07:45:07.551Z,39712.00
2018-08-20T07:46:07.465Z,41984.00
2018-08-20T07:47:07.487Z,46272.00
2018-08-20T07:48:07.305Z,46944.00
2018-08-20T07:49:07.242Z,44352.00
2018-08-20T07:50:07.145Z,42784.00
2018-08-20T07:51:07.062Z,43040.00
2018-08-20T07:52:06.981Z,42464.00
2018-08-20T07:53:06.902Z,40544.00
2018-08-20T07:54:06.941Z,40192.00
2018-08-20T07:55:06.740Z,42976.00
2018-08-20T07:56:06.662Z,48128.00
2018-08-20T07:57:06.581Z,49312.00
2018-08-20T07:58:06.501Z,46560.00
2018-08-20T07:59:06.437Z,44256.00
2018-08-20T08:00:06.341Z,48672.00
2018-08-20T08:01:06.356Z,52704.00
2018-08-20T08:02:06.180Z,53056.00
2018-08-20T08:03:06.099Z,54048.00
2018-08-20T08:04:06.036Z,54528.00
2018-08-20T08:05:05.942Z,55168.00
2018-08-20T08:06:05.865Z,52032.00
2018-08-20T08:07:05.779Z,47584.00
2018-08-20T08:08:05.699Z,50016.00
2018-08-20T08:09:05.638Z,55552.00
2018-08-20T08:10:05.539Z,56928.00
2018-08-20T08:11:05.468Z,60480.00
2018-08-20T08:12:05.380Z,63904.00
2018-08-20T08:13:05.308Z,68416.00
2018-08-20T08:14:05.261Z,71840.00
2018-08-20T08:15:05.159Z,73376.00
2018-08-20T08:16:05.064Z,71904.00
2018-08-20T08:17:04.983Z,75104.00
2018-08-20T08:18:04.903Z,80352.00
2018-08-20T08:19:04.825Z,80544.00
2018-08-20T08:20:04.761Z,77760.00
2018-08-20T08:21:04.671Z,76000.00
2018-08-20T08:22:04.587Z,74944.00
2018-08-20T08:23:04.507Z,66720.00
2018-08-20T08:24:04.431Z,61824.00
2018-08-20T08:25:04.369Z,58976.00
2018-08-20T08:26:04.275Z,59712.00
2018-08-20T08:27:04.192Z,62400.00
2018-08-20T08:28:04.111Z,59424.00
2018-08-20T08:29:04.033Z,56704.00
2018-08-20T08:30:03.973Z,56736.00
2018-08-20T08:31:03.875Z,57120.00
2018-08-20T08:32:03.800Z,56064.00
2018-08-20T08:33:03.718Z,60192.00
2018-08-20T08:34:03.640Z,62624.00
2018-08-20T08:35:03.582Z,60544.00
2018-08-20T08:36:03.484Z,58880.00
2018-08-20T08:37:03.402Z,55776.00
2018-08-20T08:38:03.381Z,58080.00
2018-08-20T08:39:03.247Z,64800.00
2018-08-20T08:40:03.187Z,68608.00
2018-08-20T08:41:03.089Z,68512.00
2018-08-20T08:42:03.011Z,67488.00
2018-08-20T08:43:02.940Z,62880.00
2018-08-20T08:44:02.857Z,60256.00
2018-08-20T08:45:02.791Z,62432.00
2018-08-20T08:46:02.695Z,63200.00
2018-08-20T08:47:02.616Z,66464.00
2018-08-20T08:48:02.542Z,68992.00
2018-08-20T08:49:02.461Z,70464.00
2018-08-20T08:50:02.411Z,73024.00
2018-08-20T08:51:02.305Z,68608.00
2018-08-20T08:52:02.230Z,66784.00
2018-08-20T08:53:02.148Z,71232.00
2018-08-20T08:54:02.071Z,74944.00
2018-08-20T08:55:02.039Z,74368.00
2018-08-20T08:56:01.914Z,75264.00
2018-08-20T08:57:01.843Z,75296.00
2018-08-20T08:58:01.757Z,70688.00
2018-08-20T08:59:01.681Z,67904.00
2018-08-20T09:00:01.622Z,68864.00
2018-08-20T09:01:01.527Z,68224.00
2018-08-20T09:02:01.446Z,67648.00
2018-08-20T09:03:01.406Z,68448.00
2018-08-20T09:04:01.292Z,66080.00
2018-08-20T09:05:01.230Z,66944.00
2018-08-20T09:06:01.137Z,66912.00
2018-08-20T09:07:01.056Z,66592.00
2018-08-20T09:08:00.981Z,69824.00
2018-08-20T09:09:00.903Z,70784.00
2018-08-20T09:10:00.842Z,71488.00
2018-08-20T09:11:00.749Z,69504.00
2018-08-20T09:12:00.669Z,68384.00
2018-08-20T09:13:00.592Z,72064.00
2018-08-20T09:14:00.514Z,75904.00
2018-08-20T09:15:00.466Z,75904.00
2018-08-20T09:16:00.361Z,80608.00
2018-08-20T09:17:00.283Z,80640.00
2018-08-20T09:18:00.203Z,78304.00
2018-08-20T09:19:00.125Z,74528.00
2018-08-20T09:20:00.066Z,74432.00
2018-08-20T09:20:59.971Z,76864.00
2018-08-20T09:21:59.896Z,77408.00
2018-08-20T09:22:59.816Z,82080.00
2018-08-20T09:23:59.742Z,84544.00
2018-08-20T09:24:59.677Z,83136.00
2018-08-20T09:25:59.582Z,84224.00
2018-08-20T09:26:59.508Z,81024.00
2018-08-20T09:27:59.430Z,81056.00
2018-08-20T09:28:59.358Z,80064.00
2018-08-20T09:29:59.296Z,78944.00
2018-08-20T09:30:59.202Z,76608.00
2018-08-20T09:31:59.119Z,77440.00
2018-08-20T09:32:59.044Z,78208.00
2018-08-20T09:33:58.965Z,79648.00
2018-08-20T09:34:58.908Z,82496.00
2018-08-20T09:35:58.810Z,83168.00
2018-08-20T09:36:58.732Z,80640.00
2018-08-20T09:37:58.656Z,82944.00
2018-08-20T09:38:58.579Z,85056.00
2018-08-20T09:39:58.518Z,88992.00
2018-08-20T09:40:58.425Z,95104.00
2018-08-20T09:41:58.348Z,95616.00
2018-08-20T09:42:58.272Z,95008.00
2018-08-20T09:43:58.194Z,92960.00
2018-08-20T09:44:58.131Z,90144.00
2018-08-20T09:45:58.040Z,83008.00
2018-08-20T09:46:57.961Z,79168.00
2018-08-20T09:47:57.888Z,80096.00
2018-08-20T09:48:57.809Z,84896.00
2018-08-20T09:49:57.749Z,85152.00
2018-08-20T09:50:57.657Z,87744.00
2018-08-20T09:51:57.579Z,90112.00
2018-08-20T09:52:57.811Z,83712.00
2018-08-20T09:53:57.425Z,80896.00
2018-08-20T09:54:57.365Z,75104.00
2018-08-20T09:55:57.271Z,73056.00
2018-08-20T09:56:57.196Z,73504.00
2018-08-20T09:57:57.116Z,71616.00
2018-08-20T09:58:57.060Z,69952.00
2018-08-20T09:59:57.085Z,72960.00
2018-08-20T10:00:56.888Z,72992.00
2018-08-20T10:01:56.810Z,73760.00
2018-08-20T10:02:56.750Z,71136.00
2018-08-20T10:03:56.657Z,71552.00
2018-08-20T10:04:56.584Z,70880.00
2018-08-20T10:05:56.519Z,71584.00
2018-08-20T10:06:56.532Z,72160.00
2018-08-20T10:07:56.353Z,79904.00
2018-08-20T10:08:56.278Z,77824.00
2018-08-20T10:09:56.199Z,78336.00
2018-08-20T10:10:56.136Z,78208.00
2018-08-20T10:11:56.045Z,74112.00
2018-08-20T10:12:55.969Z,71936.00
2018-08-20T10:13:55.993Z,69568.00
2018-08-20T10:14:55.840Z,68192.00
2018-08-20T10:15:55.754Z,66496.00
2018-08-20T10:16:55.662Z,70304.00
2018-08-20T10:17:55.590Z,71616.00
2018-08-20T10:18:55.509Z,78400.00
2018-08-20T10:19:55.436Z,80736.00
2018-08-20T10:20:55.478Z,81600.00
2018-08-20T10:21:55.280Z,81504.00
2018-08-20T10:22:55.200Z,79296.00
2018-08-20T10:23:55.125Z,77152.00
2018-08-20T10:24:55.049Z,75488.00
2018-08-20T10:25:54.984Z,74720.00
2018-08-20T10:26:54.894Z,81856.00
2018-08-20T10:27:54.946Z,79168.00
2018-08-20T10:28:54.740Z,80032.00
2018-08-20T10:29:54.663Z,81376.00
2018-08-20T10:30:54.603Z,78432.00
2018-08-20T10:31:54.526Z,81856.00
2018-08-20T10:32:54.434Z,81632.00
2018-08-20T10:33:54.356Z,76672.00
2018-08-20T10:34:54.395Z,75104.00
2018-08-20T10:35:54.219Z,70176.00
2018-08-20T10:36:54.128Z,68736.00
2018-08-20T10:37:54.221Z,70368.00
2018-08-20T10:38:53.971Z,77184.00
2018-08-20T10:39:53.897Z,80736.00
2018-08-20T10:40:53.836Z,74976.00
2018-08-20T10:41:53.847Z,77952.00
2018-08-20T10:42:53.665Z,76160.00
2018-08-20T10:43:53.591Z,76640.00
2018-08-20T10:44:53.515Z,86400.00
2018-08-20T10:45:53.453Z,89984.00
2018-08-20T10:46:53.360Z,99424.00
2018-08-20T10:47:53.285Z,90656.00
2018-08-20T10:48:53.207Z,88448.00
2018-08-20T10:49:53.139Z,79328.00
2018-08-20T10:50:53.072Z,75232.00
2018-08-20T10:51:52.983Z,78048.00
2018-08-20T10:52:52.901Z,75968.00
2018-08-20T10:53:52.829Z,78976.00
2018-08-20T10:54:52.748Z,85408.00
2018-08-20T10:55:52.788Z,79488.00
2018-08-20T10:56:52.596Z,75456.00
2018-08-20T10:57:52.522Z,74848.00
2018-08-20T10:58:52.443Z,76672.00
2018-08-20T10:59:52.367Z,75776.00
2018-08-20T11:00:52.307Z,78784.00
2018-08-20T11:01:52.222Z,81760.00
2018-08-20T11:02:52.243Z,89408.00
2018-08-20T11:03:52.063Z,87616.00
2018-08-20T11:04:51.990Z,82240.00
2018-08-20T11:05:51.925Z,82144.00
2018-08-20T11:06:51.834Z,73600.00
2018-08-20T11:07:51.760Z,79424.00
2018-08-20T11:08:51.681Z,79552.00
2018-08-20T11:09:51.602Z,75936.00
2018-08-20T11:10:51.628Z,70016.00
2018-08-20T11:11:51.452Z,64448.00
2018-08-20T11:12:51.377Z,64128.00
2018-08-20T11:13:51.302Z,64064.00
2018-08-20T11:14:51.225Z,66592.00
2018-08-20T11:15:51.166Z,70656.00
2018-08-20T11:16:51.074Z,68768.00
2018-08-20T11:17:50.996Z,72160.00
2018-08-20T11:18:50.933Z,77248.00
2018-08-20T11:19:50.846Z,82944.00
2018-08-20T11:20:50.791Z,88576.00
2018-08-20T11:21:50.791Z,85728.00
2018-08-20T11:22:50.657Z,85568.00
2018-08-20T11:23:50.545Z,84736.00
2018-08-20T11:24:50.465Z,81248.00
2018-08-20T11:25:50.406Z,81888.00
2018-08-20T11:26:50.324Z,81888.00
2018-08-20T11:27:50.236Z,91872.00
2018-08-20T11:28:50.162Z,85760.00
2018-08-20T11:29:50.088Z,89408.00
2018-08-20T11:30:50.026Z,18584.00
2018-08-20T11:31:49.941Z,19840.00
2018-08-20T11:32:49.858Z,40544.00
2018-08-20T11:33:49.780Z,21408.00
2018-08-20T11:34:49.704Z,50656.00
2018-08-20T11:35:49.740Z,79296.00
2018-08-20T11:36:49.553Z,83328.00
2018-08-20T11:37:49.478Z,82272.00
2018-08-20T11:38:49.403Z,88320.00
2018-08-20T11:39:49.324Z,85344.00
2018-08-20T11:40:49.307Z,85696.00
2018-08-20T11:41:49.173Z,30528.00
2018-08-20T11:42:49.096Z,43520.00
2018-08-20T11:43:49.019Z,22688.00
2018-08-20T11:44:48.942Z,19392.00
2018-08-20T11:45:48.881Z,67392.00
2018-08-20T11:46:48.793Z,76000.00
2018-08-20T11:47:48.715Z,61632.00
2018-08-20T11:48:48.639Z,30528.00
2018-08-20T11:49:48.559Z,80832.00
2018-08-20T11:50:48.484Z,79424.00
2018-08-20T11:51:48.422Z,79072.00
2018-08-20T11:52:48.331Z,76512.00
2018-08-20T11:53:48.251Z,81120.00
2018-08-20T11:54:48.175Z,76736.00
2018-08-20T11:55:48.115Z,80704.00
2018-08-20T11:56:48.022Z,71712.00
2018-08-20T11:57:47.942Z,83776.00
2018-08-20T11:58:47.884Z,77696.00
2018-08-20T11:59:47.796Z,80064.00
2018-08-20T12:00:47.715Z,86752.00
2018-08-20T12:01:47.656Z,83808.00
2018-08-20T12:02:47.669Z,88736.00
2018-08-20T12:03:47.482Z,40416.00
2018-08-20T12:04:47.405Z,86688.00
2018-08-20T12:05:47.335Z,80640.00
2018-08-20T12:06:47.300Z,78304.00
2018-08-20T12:07:47.229Z,74176.00
2018-08-20T12:08:47.100Z,69280.00
2018-08-20T12:09:47.023Z,66528.00
2018-08-20T12:10:46.946Z,65728.00
2018-08-20T12:11:46.888Z,67520.00
2018-08-20T12:12:46.793Z,69600.00
2018-08-20T12:13:46.714Z,69216.00
2018-08-20T12:14:46.639Z,67424.00
2018-08-20T12:15:46.582Z,70752.00
2018-08-20T12:16:46.502Z,74400.00